Time;durP1;ratioP1;P1;durP2;ratioP2;P2;SDS_P1;SDS_P2;PMS_P1;PMS_P2;Temp;Humidity;BMP_temperature;BMP_pressure;BME280_temperature;BME280_humidity;BME280_pressure;Samples;Min_cycle;Max_cycle;Signal;HPM_P1;HPM_P2
2023/08/19 00:00:46;;;;;;;26.83;23.47;;;;;;;;;;5050871;28;20037;-66
2023/08/19 00:03:11;;;;;;;26.23;21.60;;;;;;;;;;5052458;28;20419;-66
2023/08/19 00:05:36;;;;;;;34.78;24.48;;;;;;;;;;5050342;28;20811;-65
2023/08/19 00:08:03;;;;;;;28.85;25.92;;;;;;;;;;5051997;28;20083;-66
2023/08/19 00:10:28;;;;;;;27.23;20.58;;;;;;;;;;5050626;28;20017;-64
2023/08/19 00:12:53;;;;;;;31.08;24.95;;;;;;;;;;5052335;28;20028;-66
2023/08/19 00:15:18;;;;;;;26.08;23.25;;;;;;;;;;5051702;28;20013;-66
2023/08/19 00:17:43;;;;;;;26.95;24.17;;;;;;;;;;5050545;28;20128;-66
2023/08/19 00:20:10;;;;;;;25.43;22.77;;;;;;;;;;5051901;28;20044;-66
2023/08/19 00:22:36;;;;;;;26.80;21.27;;;;;;;;;;5049938;28;20063;-66
2023/08/19 00:25:02;;;;;;;26.27;23.13;;;;;;;;;;5052065;28;20085;-66
2023/08/19 00:27:29;;;;;;;23.90;21.25;;;;;;;;;;5049287;28;20049;-66
2023/08/19 00:29:54;;;;;;;26.37;23.67;;;;;;;;;;5051616;28;20017;-66
2023/08/19 00:32:19;;;;;;;28.67;23.42;;;;;;;;;;5050005;28;20132;-66
2023/08/19 00:34:45;;;;;;;24.33;21.70;;;;;;;;;;5051993;28;20035;-68
2023/08/19 00:37:10;;;;;;;32.65;21.38;;;;;;;;;;5049942;28;20032;-68
2023/08/19 00:39:35;;;;;;;24.50;21.93;;;;;;;;;;5051623;28;20017;-66
2023/08/19 00:42:00;;;;;;;25.13;22.27;;;;;;;;;;5050191;28;20033;-66
2023/08/19 00:44:25;;;;;;;25.53;22.60;;;;;;;;;;5051272;28;20017;-66
2023/08/19 00:46:51;;;;;;;23.07;20.07;;;;;;;;;;5050390;28;20037;-66
2023/08/19 00:49:16;;;;;;;23.83;21.33;;;;;;;;;;5051499;28;20017;-67
2023/08/19 00:51:41;;;;;;;24.50;20.70;;;;;;;;;;5050149;28;20036;-67
2023/08/19 00:54:06;;;;;;;25.73;23.10;;;;;;;;;;5050833;28;20448;-68
2023/08/19 00:56:31;;;;;;;26.07;21.17;;;;;;;;;;5049661;28;20440;-67
2023/08/19 00:58:57;;;;;;;24.10;21.37;;;;;;;;;;5051453;28;20031;-67
2023/08/19 01:01:22;;;;;;;27.80;21.17;;;;;;;;;;5049232;28;20033;-67
2023/08/19 01:03:47;;;;;;;25.17;21.80;;;;;;;;;;5049854;28;20472;-67
2023/08/19 01:06:15;;;;;;;22.63;19.33;;;;;;;;;;5050133;28;20041;-68
2023/08/19 01:08:59;;;;;;;22.23;19.85;;;;;;;;;;5050864;28;20543;-70
2023/08/19 01:11:38;;;;;;;24.80;22.10;;;;;;;;;;5049647;28;20033;-67
2023/08/19 01:14:11;;;;;;;24.50;20.30;;;;;;;;;;5050464;28;20104;-67
2023/08/19 01:16:38;;;;;;;23.90;21.33;;;;;;;;;;5049502;28;20029;-67
2023/08/19 01:19:05;;;;;;;24.88;21.33;;;;;;;;;;5051021;28;20049;-66
2023/08/19 01:21:30;;;;;;;26.42;22.38;;;;;;;;;;5048606;28;20500;-67
2023/08/19 01:23:58;;;;;;;25.33;22.17;;;;;;;;;;5050953;28;20028;-67
2023/08/19 01:26:23;;;;;;;24.33;21.70;;;;;;;;;;5049342;28;20497;-62
2023/08/19 01:28:49;;;;;;;24.52;21.27;;;;;;;;;;5050472;28;20423;-65
2023/08/19 01:31:14;;;;;;;21.58;18.98;;;;;;;;;;5049438;28;20037;-65
2023/08/19 01:33:39;;;;;;;24.50;20.87;;;;;;;;;;5045648;28;20453;-69
2023/08/19 01:36:13;;;;;;;27.15;21.33;;;;;;;;;;5046774;28;20091;-65
2023/08/19 01:38:44;;;;;;;22.45;18.90;;;;;;;;;;5049878;28;20013;-65
2023/08/19 01:41:10;;;;;;;22.67;20.27;;;;;;;;;;5049021;28;20029;-65
2023/08/19 01:43:36;;;;;;;24.85;20.48;;;;;;;;;;5049891;28;20025;-65
2023/08/19 01:46:01;;;;;;;23.27;20.17;;;;;;;;;;5049487;28;20037;-65
2023/08/19 01:48:26;;;;;;;22.38;20.17;;;;;;;;;;5050372;28;20051;-65
2023/08/19 01:50:51;;;;;;;26.90;23.83;;;;;;;;;;5048850;28;20385;-65
2023/08/19 01:53:16;;;;;;;24.23;21.20;;;;;;;;;;5049824;28;20060;-65
2023/08/19 01:55:42;;;;;;;22.60;20.30;;;;;;;;;;5049040;28;20048;-65
2023/08/19 01:58:07;;;;;;;25.02;22.08;;;;;;;;;;5050434;28;20422;-65
2023/08/19 02:00:32;;;;;;;22.47;20.07;;;;;;;;;;5048563;28;20048;-65
2023/08/19 02:02:57;;;;;;;21.67;19.37;;;;;;;;;;5050445;28;20346;-65
2023/08/19 02:05:22;;;;;;;23.87;21.43;;;;;;;;;;5050361;28;20017;-65
2023/08/19 02:07:47;;;;;;;35.08;20.25;;;;;;;;;;5048528;28;20040;-67
2023/08/19 02:10:13;;;;;;;24.20;18.43;;;;;;;;;;5050467;28;20119;-65
2023/08/19 02:12:38;;;;;;;26.53;21.57;;;;;;;;;;5048472;28;20039;-75
2023/08/19 02:15:03;;;;;;;22.70;18.42;;;;;;;;;;5050012;28;20415;-65
2023/08/19 02:17:28;;;;;;;21.33;18.00;;;;;;;;;;5048481;28;20040;-65
2023/08/19 02:19:53;;;;;;;24.47;18.40;;;;;;;;;;5050098;28;20125;-64
2023/08/19 02:22:20;;;;;;;21.00;19.02;;;;;;;;;;5048409;28;20396;-64
2023/08/19 02:24:46;;;;;;;19.67;17.77;;;;;;;;;;5050269;28;20113;-65
2023/08/19 02:27:11;;;;;;;20.08;17.50;;;;;;;;;;5048647;28;20566;-65
2023/08/19 02:29:36;;;;;;;20.85;18.08;;;;;;;;;;5049806;28;20083;-64
2023/08/19 02:32:01;;;;;;;21.63;16.15;;;;;;;;;;5048785;28;20515;-65
2023/08/19 02:34:26;;;;;;;18.10;15.97;;;;;;;;;;5050113;28;20021;-65
2023/08/19 02:36:52;;;;;;;17.53;15.57;;;;;;;;;;5048452;28;20033;-64
2023/08/19 02:39:17;;;;;;;18.13;15.10;;;;;;;;;;5048488;28;20089;-64
2023/08/19 02:41:42;;;;;;;17.30;15.53;;;;;;;;;;5048816;28;20029;-64
2023/08/19 02:44:07;;;;;;;23.25;16.15;;;;;;;;;;5049343;28;20450;-64
2023/08/19 02:46:32;;;;;;;17.70;14.20;;;;;;;;;;5048521;28;20116;-64
2023/08/19 02:48:57;;;;;;;16.43;13.93;;;;;;;;;;5050213;28;20028;-68
2023/08/19 02:51:23;;;;;;;16.00;13.97;;;;;;;;;;5050228;28;20510;-64
2023/08/19 02:53:48;;;;;;;17.50;14.45;;;;;;;;;;5053697;28;20492;-64
2023/08/19 02:56:13;;;;;;;20.83;14.63;;;;;;;;;;5052243;28;20033;-66
2023/08/19 02:58:38;;;;;;;20.00;11.82;;;;;;;;;;5053107;28;20013;-65
2023/08/19 03:01:03;;;;;;;21.48;12.23;;;;;;;;;;5051936;28;20037;-65
2023/08/19 03:03:28;;;;;;;12.50;11.30;;;;;;;;;;5053379;28;20017;-64
2023/08/19 03:05:58;;;;;;;13.57;12.17;;;;;;;;;;5052131;28;20037;-64
2023/08/19 03:08:23;;;;;;;16.77;12.88;;;;;;;;;;5053383;28;20794;-64
2023/08/19 03:10:48;;;;;;;13.30;11.17;;;;;;;;;;5051968;28;20036;-64
2023/08/19 03:13:13;;;;;;;14.57;12.80;;;;;;;;;;5052859;28;20459;-64
2023/08/19 03:15:38;;;;;;;15.37;10.33;;;;;;;;;;5051676;28;20029;-64
2023/08/19 03:18:04;;;;;;;11.63;10.37;;;;;;;;;;5053297;28;20021;-64
2023/08/19 03:20:29;;;;;;;15.30;12.18;;;;;;;;;;5051042;28;20085;-64
2023/08/19 03:22:54;;;;;;;10.98;9.85;;;;;;;;;;5053419;28;20017;-64
2023/08/19 03:25:19;;;;;;;14.63;11.77;;;;;;;;;;5052872;28;20114;-73
2023/08/19 03:27:45;;;;;;;12.20;11.00;;;;;;;;;;5049962;28;20033;-64
2023/08/19 03:30:10;;;;;;;13.00;11.50;;;;;;;;;;5053407;28;20013;-64
2023/08/19 03:32:35;;;;;;;19.23;11.20;;;;;;;;;;5051162;28;20467;-65
2023/08/19 03:35:00;;;;;;;13.17;11.80;;;;;;;;;;5052711;28;20016;-64
2023/08/19 03:37:26;;;;;;;16.92;10.85;;;;;;;;;;5051385;28;20683;-64
2023/08/19 03:39:51;;;;;;;20.30;10.87;;;;;;;;;;5052855;28;20047;-64
2023/08/19 03:42:16;;;;;;;13.27;10.97;;;;;;;;;;5050901;28;20447;-64
2023/08/19 03:44:41;;;;;;;17.63;11.63;;;;;;;;;;5052689;28;20013;-65
2023/08/19 03:47:09;;;;;;;11.30;10.15;;;;;;;;;;5051503;28;20044;-64
2023/08/19 03:49:35;;;;;;;13.73;10.70;;;;;;;;;;5052069;28;20534;-65
2023/08/19 03:52:00;;;;;;;12.02;10.82;;;;;;;;;;5051360;28;20033;-66
2023/08/19 03:54:25;;;;;;;18.73;13.57;;;;;;;;;;5052175;28;20380;-66
2023/08/19 03:56:50;;;;;;;11.45;10.35;;;;;;;;;;5050608;28;20033;-66
2023/08/19 03:59:15;;;;;;;11.53;10.33;;;;;;;;;;5052616;28;20040;-66
2023/08/19 04:01:40;;;;;;;15.47;11.83;;;;;;;;;;5050322;28;20443;-72
2023/08/19 04:04:09;;;;;;;13.00;11.73;;;;;;;;;;5052011;28;20017;-66
2023/08/19 04:06:34;;;;;;;18.88;14.48;;;;;;;;;;5050758;28;20456;-69
2023/08/19 04:09:00;;;;;;;17.83;12.43;;;;;;;;;;5052410;28;20384;-67
2023/08/19 04:11:25;;;;;;;13.27;10.55;;;;;;;;;;5050251;28;20492;-67
2023/08/19 04:13:51;;;;;;;14.53;13.00;;;;;;;;;;5024260;28;20025;-67
2023/08/19 04:16:16;;;;;;;12.50;11.23;;;;;;;;;;5029112;28;20445;-66
2023/08/19 04:18:41;;;;;;;12.10;10.87;;;;;;;;;;5032009;28;20040;-65
2023/08/19 04:21:07;;;;;;;14.10;12.73;;;;;;;;;;5030320;28;21002;-65
2023/08/19 04:23:32;;;;;;;15.57;11.10;;;;;;;;;;5032078;28;20021;-66
2023/08/19 04:25:58;;;;;;;11.45;10.32;;;;;;;;;;5030794;28;20447;-66
2023/08/19 04:28:23;;;;;;;15.15;10.75;;;;;;;;;;5031526;28;20420;-65
2023/08/19 04:30:48;;;;;;;11.87;9.87;;;;;;;;;;5030565;28;20025;-65
2023/08/19 04:33:14;;;;;;;12.20;8.73;;;;;;;;;;5032419;28;20498;-70
2023/08/19 04:35:40;;;;;;;14.25;11.40;;;;;;;;;;5048531;28;20032;-67
2023/08/19 04:38:05;;;;;;;17.88;10.23;;;;;;;;;;5051985;28;20532;-67
2023/08/19 04:40:33;;;;;;;19.67;11.37;;;;;;;;;;5049885;28;20476;-65
2023/08/19 04:42:58;;;;;;;13.73;9.90;;;;;;;;;;5051320;28;20025;-67
2023/08/19 04:45:23;;;;;;;21.43;10.67;;;;;;;;;;5051361;28;20043;-66
2023/08/19 04:47:49;;;;;;;17.52;10.43;;;;;;;;;;5049408;28;20052;-66
2023/08/19 04:50:14;;;;;;;16.00;9.40;;;;;;;;;;5050080;28;20031;-66
2023/08/19 04:52:39;;;;;;;12.60;8.87;;;;;;;;;;5048899;28;20511;-66
2023/08/19 04:55:04;;;;;;;13.30;10.27;;;;;;;;;;5051647;28;20450;-66
2023/08/19 04:57:30;;;;;;;13.40;10.52;;;;;;;;;;5049281;28;20456;-66
2023/08/19 04:59:55;;;;;;;11.65;9.68;;;;;;;;;;5051633;28;20024;-66
2023/08/19 05:02:20;;;;;;;10.80;9.47;;;;;;;;;;5049308;28;20080;-66
2023/08/19 05:04:45;;;;;;;12.73;8.65;;;;;;;;;;5051279;28;20020;-66
2023/08/19 05:07:10;;;;;;;13.55;9.23;;;;;;;;;;5049313;28;20087;-66
2023/08/19 05:09:35;;;;;;;13.67;10.43;;;;;;;;;;5050239;28;20020;-66
2023/08/19 05:12:00;;;;;;;11.88;9.07;;;;;;;;;;5049691;28;20043;-67
2023/08/19 05:14:25;;;;;;;13.40;8.80;;;;;;;;;;5050858;28;20082;-68
2023/08/19 05:16:51;;;;;;;13.45;8.60;;;;;;;;;;5048059;28;20043;-67
2023/08/19 05:19:16;;;;;;;10.40;9.13;;;;;;;;;;5048937;28;20492;-67
2023/08/19 05:21:41;;;;;;;13.80;8.73;;;;;;;;;;5049435;28;20047;-67
2023/08/19 05:24:07;;;;;;;8.15;7.38;;;;;;;;;;5051245;28;20017;-67
2023/08/19 05:26:32;;;;;;;16.13;8.60;;;;;;;;;;5046630;28;20072;-67
2023/08/19 05:28:57;;;;;;;8.15;7.45;;;;;;;;;;5049603;28;20118;-67
2023/08/19 05:31:22;;;;;;;11.63;8.30;;;;;;;;;;5048708;28;20048;-67
2023/08/19 05:33:48;;;;;;;14.63;8.20;;;;;;;;;;5049425;28;20074;-67
2023/08/19 05:36:13;;;;;;;14.13;8.97;;;;;;;;;;5049202;28;20025;-66
2023/08/19 05:38:38;;;;;;;8.98;6.57;;;;;;;;;;5050171;28;20021;-67
2023/08/19 05:41:03;;;;;;;9.23;8.33;;;;;;;;;;5048088;28;20499;-67
2023/08/19 05:43:28;;;;;;;11.67;9.77;;;;;;;;;;5050508;28;20521;-67
2023/08/19 05:45:53;;;;;;;11.20;6.60;;;;;;;;;;5048202;28;20535;-69
2023/08/19 05:48:18;;;;;;;18.90;9.23;;;;;;;;;;5048404;28;20025;-67
2023/08/19 05:50:45;;;;;;;7.72;7.03;;;;;;;;;;5048160;28;20036;-65
2023/08/19 05:53:10;;;;;;;7.28;6.57;;;;;;;;;;5049488;28;20383;-66
2023/08/19 05:55:35;;;;;;;9.30;7.10;;;;;;;;;;5047742;28;20029;-69
2023/08/19 05:58:00;;;;;;;12.63;6.93;;;;;;;;;;5049536;28;20013;-61
2023/08/19 06:00:25;;;;;;;10.35;7.38;;;;;;;;;;5049603;28;20082;-62
2023/08/19 06:02:51;;;;;;;10.90;8.57;;;;;;;;;;5048466;28;20047;-60
2023/08/19 06:05:16;;;;;;;10.90;6.10;;;;;;;;;;5049418;28;20728;-61
2023/08/19 06:07:41;;;;;;;7.93;7.23;;;;;;;;;;5048698;28;20041;-59
2023/08/19 06:10:06;;;;;;;8.50;6.57;;;;;;;;;;5049235;28;20029;-59
2023/08/19 06:12:31;;;;;;;9.77;6.13;;;;;;;;;;5048200;28;20037;-60
2023/08/19 06:14:57;;;;;;;16.13;8.38;;;;;;;;;;5050396;28;20805;-59
2023/08/19 06:17:22;;;;;;;8.85;6.20;;;;;;;;;;5047888;28;20033;-60
2023/08/19 06:19:47;;;;;;;9.63;6.93;;;;;;;;;;5049522;28;20041;-59
2023/08/19 06:22:12;;;;;;;9.38;7.35;;;;;;;;;;5048607;28;20044;-60
2023/08/19 06:24:37;;;;;;;11.00;8.77;;;;;;;;;;5049790;28;20078;-60
2023/08/19 06:27:02;;;;;;;16.37;9.70;;;;;;;;;;5051751;28;20651;-60
2023/08/19 06:29:28;;;;;;;12.83;6.20;;;;;;;;;;5053860;28;20446;-59
2023/08/19 06:31:53;;;;;;;13.23;6.90;;;;;;;;;;5052459;28;20443;-59
2023/08/19 06:34:18;;;;;;;9.05;6.53;;;;;;;;;;5053187;28;20380;-60
2023/08/19 06:36:46;;;;;;;14.38;6.53;;;;;;;;;;5052327;28;20169;-59
2023/08/19 06:39:25;;;;;;;8.98;6.90;;;;;;;;;;5053617;28;20017;-59
2023/08/19 06:41:53;;;;;;;8.85;5.68;;;;;;;;;;5051990;28;20033;-66
2023/08/19 06:44:19;;;;;;;16.10;8.10;;;;;;;;;;5053204;28;20487;-60
2023/08/19 06:46:45;;;;;;;7.22;6.15;;;;;;;;;;5052087;28;20633;-59
2023/08/19 06:49:10;;;;;;;9.35;5.95;;;;;;;;;;5052971;28;20032;-59
2023/08/19 06:51:35;;;;;;;13.05;5.45;;;;;;;;;;5051826;28;20037;-59
2023/08/19 06:54:01;;;;;;;13.15;6.47;;;;;;;;;;5053559;28;20025;-59
2023/08/19 06:56:33;;;;;;;6.72;6.13;;;;;;;;;;5048120;28;20036;-66
2023/08/19 06:59:19;;;;;;;8.73;7.07;;;;;;;;;;5053044;28;20114;-60
2023/08/19 07:01:48;;;;;;;22.08;6.80;;;;;;;;;;5051054;28;20049;-62
2023/08/19 07:04:13;;;;;;;11.20;6.88;;;;;;;;;;5050711;28;20365;-60
2023/08/19 07:06:39;;;;;;;9.52;7.03;;;;;;;;;;5051266;28;20099;-60
2023/08/19 07:09:05;;;;;;;6.13;5.43;;;;;;;;;;5052585;28;20477;-59
2023/08/19 07:11:31;;;;;;;6.95;5.22;;;;;;;;;;5045193;28;20040;-59
2023/08/19 07:13:56;;;;;;;7.15;5.78;;;;;;;;;;5033610;28;20030;-66
2023/08/19 07:16:22;;;;;;;8.93;5.80;;;;;;;;;;5049738;28;20037;-59
2023/08/19 07:18:49;;;;;;;9.50;5.60;;;;;;;;;;5046821;28;20187;-60
2023/08/19 07:21:15;;;;;;;13.32;5.63;;;;;;;;;;5051390;28;20033;-59
2023/08/19 07:23:41;;;;;;;10.32;5.38;;;;;;;;;;5052636;28;20467;-60
2023/08/19 07:26:07;;;;;;;7.97;4.78;;;;;;;;;;5050561;28;20072;-60
2023/08/19 07:28:33;;;;;;;5.63;3.75;;;;;;;;;;5051658;28;20052;-59
2023/08/19 07:30:59;;;;;;;7.63;5.53;;;;;;;;;;5050576;28;20523;-59
2023/08/19 07:33:24;;;;;;;6.05;5.43;;;;;;;;;;5051859;28;20078;-59
2023/08/19 07:35:49;;;;;;;9.23;4.23;;;;;;;;;;5051308;28;20094;-60
2023/08/19 07:38:15;;;;;;;12.43;4.75;;;;;;;;;;5050891;28;20431;-60
2023/08/19 07:40:40;;;;;;;10.10;4.53;;;;;;;;;;5050632;28;20029;-62
2023/08/19 07:43:05;;;;;;;5.97;4.40;;;;;;;;;;5051279;28;20422;-60
2023/08/19 07:45:30;;;;;;;4.17;3.83;;;;;;;;;;5051548;28;20013;-60
2023/08/19 07:47:55;;;;;;;4.33;3.93;;;;;;;;;;5050749;28;20040;-60
2023/08/19 07:50:21;;;;;;;11.27;5.60;;;;;;;;;;5052053;28;20438;-63
2023/08/19 07:52:46;;;;;;;4.80;3.95;;;;;;;;;;5050725;28;20037;-60
2023/08/19 07:55:11;;;;;;;22.33;5.57;;;;;;;;;;5051806;28;20017;-60
2023/08/19 07:57:36;;;;;;;6.20;3.70;;;;;;;;;;5050397;28;20096;-60
2023/08/19 08:00:02;;;;;;;15.37;6.37;;;;;;;;;;5051801;28;20051;-60
2023/08/19 08:02:27;;;;;;;7.47;4.40;;;;;;;;;;5049522;28;20416;-60
2023/08/19 08:04:52;;;;;;;6.70;4.67;;;;;;;;;;5051757;28;20029;-60
2023/08/19 08:07:17;;;;;;;6.60;4.67;;;;;;;;;;5050379;28;20036;-60
2023/08/19 08:09:45;;;;;;;7.67;3.90;;;;;;;;;;5051651;28;20021;-61
2023/08/19 08:12:10;;;;;;;9.65;4.20;;;;;;;;;;5050370;28;20025;-60
2023/08/19 08:14:36;;;;;;;6.78;4.05;;;;;;;;;;5051103;28;20368;-60
2023/08/19 08:17:01;;;;;;;4.35;3.25;;;;;;;;;;5050256;28;20079;-62
2023/08/19 08:19:26;;;;;;;5.75;3.58;;;;;;;;;;5051671;28;20056;-61
2023/08/19 08:21:52;;;;;;;5.87;3.90;;;;;;;;;;5050379;28;20036;-60
2023/08/19 08:24:17;;;;;;;8.63;3.90;;;;;;;;;;5051218;28;21151;-61
2023/08/19 08:26:42;;;;;;;9.10;4.60;;;;;;;;;;5050295;28;20094;-61
2023/08/19 08:29:07;;;;;;;4.40;3.67;;;;;;;;;;5051625;28;20423;-61
2023/08/19 08:31:33;;;;;;;13.63;4.78;;;;;;;;;;5049542;28;20112;-61
2023/08/19 08:33:58;;;;;;;3.80;3.42;;;;;;;;;;5051466;28;20025;-60
2023/08/19 08:36:23;;;;;;;11.68;6.05;;;;;;;;;;5049653;28;20025;-60
2023/08/19 08:38:48;;;;;;;10.70;4.20;;;;;;;;;;5050380;28;20372;-63
2023/08/19 08:41:14;;;;;;;6.22;4.75;;;;;;;;;;5049599;28;20889;-61
2023/08/19 08:43:39;;;;;;;6.65;4.97;;;;;;;;;;5050330;28;20082;-60
2023/08/19 08:46:05;;;;;;;5.45;3.53;;;;;;;;;;5039663;28;20057;-60
2023/08/19 08:48:32;;;;;;;5.35;4.05;;;;;;;;;;5050755;28;20017;-60
2023/08/19 08:50:57;;;;;;;14.43;4.10;;;;;;;;;;5049703;28;20033;-61
2023/08/19 08:53:23;;;;;;;7.18;3.72;;;;;;;;;;5050274;28;20020;-64
2023/08/19 08:55:51;;;;;;;16.05;5.40;;;;;;;;;;5048896;28;20021;-60
2023/08/19 08:58:16;;;;;;;6.18;4.47;;;;;;;;;;5049359;28;20013;-60
2023/08/19 09:00:42;;;;;;;7.50;4.30;;;;;;;;;;5047441;28;20071;-60
2023/08/19 09:03:07;;;;;;;8.68;4.88;;;;;;;;;;5050802;28;20103;-60
2023/08/19 09:05:33;;;;;;;13.18;4.78;;;;;;;;;;5048572;28;20694;-60
2023/08/19 09:07:59;;;;;;;6.95;4.43;;;;;;;;;;5050121;28;20021;-62
2023/08/19 09:10:26;;;;;;;5.25;4.63;;;;;;;;;;5050831;28;20027;-60
2023/08/19 09:12:56;;;;;;;11.63;4.97;;;;;;;;;;5049249;28;20094;-63
2023/08/19 09:15:22;;;;;;;29.13;4.85;;;;;;;;;;5049284;28;20021;-60
2023/08/19 09:17:47;;;;;;;5.20;4.00;;;;;;;;;;5049260;28;20178;-61
2023/08/19 09:20:13;;;;;;;12.25;4.40;;;;;;;;;;5050208;28;20047;-61
2023/08/19 09:22:42;;;;;;;9.23;4.72;;;;;;;;;;5048599;28;20061;-60
2023/08/19 09:25:07;;;;;;;8.23;3.85;;;;;;;;;;5050638;28;20024;-61
2023/08/19 09:27:32;;;;;;;8.02;4.72;;;;;;;;;;5048743;28;20451;-60
2023/08/19 09:29:58;;;;;;;9.63;4.60;;;;;;;;;;5050195;28;20591;-60
2023/08/19 09:32:27;;;;;;;10.38;4.82;;;;;;;;;;5048580;28;20129;-61
2023/08/19 09:35:06;;;;;;;12.00;6.63;;;;;;;;;;5048751;28;20009;-60
2023/08/19 09:37:31;;;;;;;9.95;4.68;;;;;;;;;;5048070;28;20051;-60
2023/08/19 09:39:57;;;;;;;6.93;5.32;;;;;;;;;;5048559;28;20100;-60
2023/08/19 09:42:22;;;;;;;5.80;4.63;;;;;;;;;;5048049;28;20032;-63
2023/08/19 09:44:47;;;;;;;7.77;4.37;;;;;;;;;;5049482;28;20021;-60
2023/08/19 09:47:12;;;;;;;10.57;4.53;;;;;;;;;;5048237;28;20132;-64
2023/08/19 09:49:37;;;;;;;8.50;5.20;;;;;;;;;;5047959;28;20021;-61
2023/08/19 09:52:03;;;;;;;8.17;5.07;;;;;;;;;;5047923;28;20043;-60
2023/08/19 09:54:28;;;;;;;16.27;4.90;;;;;;;;;;5049589;28;20044;-60
2023/08/19 09:56:57;;;;;;;4.50;4.10;;;;;;;;;;5048570;28;20033;-66
2023/08/19 09:59:26;;;;;;;9.40;4.32;;;;;;;;;;5048892;28;20021;-60
2023/08/19 10:01:52;;;;;;;7.53;4.43;;;;;;;;;;5028693;28;20033;-60
2023/08/19 10:04:18;;;;;;;6.53;5.32;;;;;;;;;;5030085;28;20021;-59
2023/08/19 10:06:45;;;;;;;16.83;5.88;;;;;;;;;;5028339;28;20042;-60
2023/08/19 10:09:11;;;;;;;8.60;6.03;;;;;;;;;;5037928;28;20479;-60
2023/08/19 10:11:38;;;;;;;12.13;5.47;;;;;;;;;;5048332;28;20041;-59
2023/08/19 10:14:03;;;;;;;8.18;4.35;;;;;;;;;;5049319;28;20021;-60
2023/08/19 10:16:31;;;;;;;17.48;5.40;;;;;;;;;;5047686;28;20044;-60
2023/08/19 10:18:56;;;;;;;10.20;6.75;;;;;;;;;;5049589;28;20049;-60
2023/08/19 10:21:23;;;;;;;9.65;4.72;;;;;;;;;;5048042;28;20064;-60
2023/08/19 10:23:49;;;;;;;9.80;5.53;;;;;;;;;;5049729;28;20509;-60
2023/08/19 10:26:14;;;;;;;11.52;6.72;;;;;;;;;;5047312;28;20044;-60
2023/08/19 10:28:40;;;;;;;14.50;6.43;;;;;;;;;;5048088;28;20029;-60
2023/08/19 10:31:06;;;;;;;8.17;5.33;;;;;;;;;;5048378;28;20033;-60
2023/08/19 10:33:33;;;;;;;8.75;6.97;;;;;;;;;;5047799;28;20531;-70
2023/08/19 10:36:00;;;;;;;10.60;6.97;;;;;;;;;;5048217;28;20035;-60
2023/08/19 10:38:25;;;;;;;12.15;6.63;;;;;;;;;;5048593;28;20021;-60
2023/08/19 10:40:59;;;;;;;10.73;6.33;;;;;;;;;;5047599;28;20104;-62
2023/08/19 10:43:24;;;;;;;9.80;6.40;;;;;;;;;;5048033;28;20455;-60
2023/08/19 10:45:55;;;;;;;11.47;7.23;;;;;;;;;;5047684;28;20079;-61
2023/08/19 10:48:33;;;;;;;18.20;8.57;;;;;;;;;;5049349;28;20024;-61
2023/08/19 10:50:58;;;;;;;14.38;7.93;;;;;;;;;;5048288;28;20033;-61
2023/08/19 10:53:24;;;;;;;14.93;7.85;;;;;;;;;;5049025;28;20387;-60
2023/08/19 10:55:55;;;;;;;12.63;9.20;;;;;;;;;;5047834;28;20112;-61
2023/08/19 10:58:22;;;;;;;16.55;8.85;;;;;;;;;;5049174;28;20340;-60
2023/08/19 11:00:47;;;;;;;11.82;9.23;;;;;;;;;;5039096;28;20573;-61
2023/08/19 11:03:12;;;;;;;17.23;9.80;;;;;;;;;;5029867;28;20108;-61
2023/08/19 11:05:46;;;;;;;13.15;10.60;;;;;;;;;;5037357;28;20028;-60
2023/08/19 11:08:12;;;;;;;14.00;9.68;;;;;;;;;;5049363;28;20052;-61
2023/08/19 11:10:38;;;;;;;19.58;8.70;;;;;;;;;;5047917;28;20052;-60
2023/08/19 11:13:03;;;;;;;10.95;9.75;;;;;;;;;;5052194;28;20387;-61
2023/08/19 11:15:28;;;;;;;12.83;9.83;;;;;;;;;;5052700;28;20020;-65
2023/08/19 11:17:53;;;;;;;14.43;9.17;;;;;;;;;;5051967;28;20896;-62
2023/08/19 11:20:19;;;;;;;10.23;8.93;;;;;;;;;;5052944;28;20045;-61
2023/08/19 11:22:48;;;;;;;19.02;10.05;;;;;;;;;;5051635;28;20112;-61
2023/08/19 11:25:14;;;;;;;13.55;9.93;;;;;;;;;;5052779;28;20017;-61
2023/08/19 11:27:39;;;;;;;13.55;10.93;;;;;;;;;;5051802;28;20124;-62
2023/08/19 11:30:06;;;;;;;13.53;11.83;;;;;;;;;;5051545;28;20487;-62
2023/08/19 11:32:31;;;;;;;16.77;11.52;;;;;;;;;;5051285;28;20612;-62
2023/08/19 11:34:56;;;;;;;12.17;10.83;;;;;;;;;;5051554;28;20614;-62
2023/08/19 11:37:21;;;;;;;20.77;12.53;;;;;;;;;;5050364;28;20796;-62
2023/08/19 11:39:46;;;;;;;13.23;11.80;;;;;;;;;;5052757;28;20412;-62
2023/08/19 11:42:12;;;;;;;16.30;11.40;;;;;;;;;;5051266;28;20500;-61
2023/08/19 11:44:37;;;;;;;15.37;12.70;;;;;;;;;;5052331;28;20028;-62
2023/08/19 11:47:02;;;;;;;17.90;12.47;;;;;;;;;;5051387;28;20578;-62
2023/08/19 11:49:28;;;;;;;13.50;12.07;;;;;;;;;;5052617;28;20368;-61
2023/08/19 11:51:53;;;;;;;11.45;10.38;;;;;;;;;;5050751;28;20400;-65
2023/08/19 11:54:21;;;;;;;12.00;10.87;;;;;;;;;;5052327;28;20107;-61
2023/08/19 11:56:50;;;;;;;16.70;14.30;;;;;;;;;;5051147;28;20048;-61
2023/08/19 11:59:16;;;;;;;15.18;12.50;;;;;;;;;;5052087;28;20040;-61
2023/08/19 12:01:41;;;;;;;20.65;12.68;;;;;;;;;;5051244;28;20033;-61
2023/08/19 12:04:11;;;;;;;16.98;9.82;;;;;;;;;;5052579;28;20071;-61
2023/08/19 12:06:37;;;;;;;17.35;13.23;;;;;;;;;;5050409;28;20102;-62
2023/08/19 12:09:02;;;;;;;15.05;12.90;;;;;;;;;;5052310;28;20021;-62
2023/08/19 12:11:27;;;;;;;14.95;11.93;;;;;;;;;;5050767;28;20124;-61
2023/08/19 12:13:53;;;;;;;15.25;12.38;;;;;;;;;;5051988;28;20422;-61
2023/08/19 12:16:18;;;;;;;22.25;13.25;;;;;;;;;;5049233;28;20044;-61
2023/08/19 12:18:44;;;;;;;13.13;10.65;;;;;;;;;;5051744;28;20052;-61
2023/08/19 12:21:09;;;;;;;21.25;12.65;;;;;;;;;;5050228;28;20082;-61
2023/08/19 12:23:34;;;;;;;17.80;13.77;;;;;;;;;;5051336;28;20131;-61
2023/08/19 12:26:00;;;;;;;16.33;13.30;;;;;;;;;;5050618;28;20115;-70
2023/08/19 12:28:25;;;;;;;17.20;12.60;;;;;;;;;;5051476;28;20021;-61
2023/08/19 12:30:51;;;;;;;15.63;12.60;;;;;;;;;;5050782;28;20463;-65
2023/08/19 12:33:17;;;;;;;20.10;14.32;;;;;;;;;;5051947;28;20025;-61
2023/08/19 12:35:44;;;;;;;19.52;14.73;;;;;;;;;;5049827;28;20017;-61
2023/08/19 12:38:11;;;;;;;26.97;16.23;;;;;;;;;;5052046;28;20021;-61
2023/08/19 12:40:36;;;;;;;16.85;15.27;;;;;;;;;;5049996;28;20021;-61
2023/08/19 12:43:01;;;;;;;22.57;16.43;;;;;;;;;;5051791;28;20108;-61
2023/08/19 12:45:27;;;;;;;18.90;15.73;;;;;;;;;;5051670;28;20029;-61
2023/08/19 12:47:52;;;;;;;19.73;17.52;;;;;;;;;;5050164;28;20456;-61
2023/08/19 12:50:18;;;;;;;21.80;17.35;;;;;;;;;;5050719;28;20021;-61
2023/08/19 12:52:44;;;;;;;19.17;16.33;;;;;;;;;;5050103;28;20460;-61
2023/08/19 12:55:09;;;;;;;18.65;16.80;;;;;;;;;;5051026;28;20044;-61
2023/08/19 12:57:36;;;;;;;18.15;16.27;;;;;;;;;;5049449;28;20037;-61
2023/08/19 13:00:03;;;;;;;20.13;17.52;;;;;;;;;;5051398;28;20045;-61
2023/08/19 13:02:28;;;;;;;24.85;16.27;;;;;;;;;;5048954;28;20044;-61
2023/08/19 13:04:53;;;;;;;17.60;16.00;;;;;;;;;;5050762;28;20013;-61
2023/08/19 13:07:18;;;;;;;19.77;17.60;;;;;;;;;;5049323;28;20036;-62
2023/08/19 13:09:43;;;;;;;21.60;19.33;;;;;;;;;;5051557;28;20468;-73
2023/08/19 13:12:09;;;;;;;22.45;19.35;;;;;;;;;;5048115;28;20029;-61
2023/08/19 13:14:34;;;;;;;20.90;18.70;;;;;;;;;;5050520;28;20029;-61
2023/08/19 13:16:59;;;;;;;22.40;18.63;;;;;;;;;;5049658;28;20440;-61
2023/08/19 13:19:24;;;;;;;29.77;21.60;;;;;;;;;;5049909;28;20072;-64
2023/08/19 13:21:49;;;;;;;29.83;25.00;;;;;;;;;;5049071;28;20112;-61
2023/08/19 13:24:14;;;;;;;29.50;25.58;;;;;;;;;;5050070;28;20468;-62
2023/08/19 13:26:41;;;;;;;40.57;32.50;;;;;;;;;;5049081;28;20033;-63
2023/08/19 13:29:06;;;;;;;42.50;34.90;;;;;;;;;;5050810;28;20049;-62
2023/08/19 13:31:32;;;;;;;43.58;37.25;;;;;;;;;;5048982;28;20084;-62
2023/08/19 13:33:59;;;;;;;41.05;36.75;;;;;;;;;;5049368;28;20025;-70
2023/08/19 13:36:24;;;;;;;40.90;36.92;;;;;;;;;;5049184;28;20079;-63
2023/08/19 13:38:49;;;;;;;41.60;37.50;;;;;;;;;;5050550;28;20017;-62
2023/08/19 13:41:15;;;;;;;41.33;37.17;;;;;;;;;;5049363;28;20048;-62
2023/08/19 13:43:40;;;;;;;46.25;37.92;;;;;;;;;;5049606;28;20443;-62
2023/08/19 13:46:05;;;;;;;45.42;39.75;;;;;;;;;;5049454;28;20442;-72
2023/08/19 13:48:31;;;;;;;46.90;37.45;;;;;;;;;;5050188;28;20013;-63
2023/08/19 13:50:56;;;;;;;37.13;33.53;;;;;;;;;;5049000;28;20053;-63
2023/08/19 13:53:21;;;;;;;41.67;35.23;;;;;;;;;;5050416;28;20021;-63
2023/08/19 13:55:46;;;;;;;48.30;36.60;;;;;;;;;;5048577;28;20468;-62
2023/08/19 13:58:11;;;;;;;42.30;32.77;;;;;;;;;;5049920;28;20025;-63
2023/08/19 14:00:36;;;;;;;36.90;32.75;;;;;;;;;;5047311;28;20455;-62
2023/08/19 14:03:02;;;;;;;36.08;32.40;;;;;;;;;;5049741;28;20058;-62
2023/08/19 14:05:28;;;;;;;38.23;30.80;;;;;;;;;;5049321;28;20047;-63
2023/08/19 14:07:53;;;;;;;40.40;30.40;;;;;;;;;;5048341;28;20637;-64
2023/08/19 14:10:19;;;;;;;35.03;30.63;;;;;;;;;;5050250;28;20055;-62
2023/08/19 14:12:46;;;;;;;34.33;29.77;;;;;;;;;;5048327;28;20044;-63
2023/08/19 14:15:11;;;;;;;31.73;28.05;;;;;;;;;;5049847;28;20680;-62
2023/08/19 14:17:36;;;;;;;35.93;28.47;;;;;;;;;;5048319;28;20179;-62